createdAt,value
2023-03-31T00:00:28.444Z,990.90
2023-03-31T00:01:28.430Z,990.94
2023-03-31T00:02:28.499Z,990.98
2023-03-31T00:03:28.477Z,991.03
2023-03-31T00:04:28.395Z,990.99
2023-03-31T00:05:28.382Z,990.96
2023-03-31T00:06:28.359Z,990.86
2023-03-31T00:07:28.323Z,990.89
2023-03-31T00:08:28.330Z,990.78
2023-03-31T00:09:28.357Z,990.73
2023-03-31T00:10:28.291Z,990.72
2023-03-31T00:11:28.283Z,990.75
2023-03-31T00:12:28.281Z,990.70
2023-03-31T00:13:28.294Z,990.79
2023-03-31T00:14:28.260Z,990.74
2023-03-31T00:15:28.266Z,990.72
2023-03-31T00:16:28.256Z,990.71
2023-03-31T00:17:28.279Z,990.68
2023-03-31T00:18:28.267Z,990.65
2023-03-31T00:19:28.193Z,990.67
2023-03-31T00:20:28.184Z,990.69
2023-03-31T00:21:28.186Z,990.61
2023-03-31T00:22:28.191Z,990.66
2023-03-31T00:23:28.116Z,990.67
2023-03-31T00:24:28.163Z,990.61
2023-03-31T00:25:28.153Z,990.63
2023-03-31T00:26:28.212Z,990.59
2023-03-31T00:27:28.093Z,990.55
2023-03-31T00:28:28.079Z,990.49
2023-03-31T00:29:28.151Z,990.52
2023-03-31T00:30:28.034Z,990.42
2023-03-31T00:31:28.089Z,990.47
2023-03-31T00:32:28.041Z,990.40
2023-03-31T00:33:28.029Z,990.40
2023-03-31T00:34:28.009Z,990.39
2023-03-31T00:35:28.041Z,990.38
2023-03-31T00:36:27.973Z,990.35
2023-03-31T00:37:27.954Z,990.36
2023-03-31T00:38:27.974Z,990.43
2023-03-31T00:39:27.950Z,990.35
2023-03-31T00:40:27.968Z,990.36
2023-03-31T00:41:27.907Z,990.35
2023-03-31T00:42:27.902Z,990.35
2023-03-31T00:43:27.927Z,990.32
2023-03-31T00:44:27.903Z,990.27
2023-03-31T00:45:27.911Z,990.25
2023-03-31T00:46:28.031Z,990.21
2023-03-31T00:47:27.896Z,990.18
2023-03-31T00:48:27.831Z,990.20
2023-03-31T00:49:27.874Z,990.17
2023-03-31T00:50:27.841Z,990.11
2023-03-31T00:51:27.826Z,990.16
2023-03-31T00:52:27.838Z,990.15
2023-03-31T00:53:27.790Z,990.24
2023-03-31T00:54:27.791Z,990.15
2023-03-31T00:55:27.749Z,990.15
2023-03-31T00:56:27.759Z,990.14
2023-03-31T00:57:27.754Z,990.12
2023-03-31T00:58:27.772Z,990.12
2023-03-31T00:59:27.714Z,990.05
2023-03-31T01:00:27.695Z,990.04
2023-03-31T01:01:27.715Z,990.04
2023-03-31T01:02:27.711Z,989.95
2023-03-31T01:03:27.739Z,989.92
2023-03-31T01:04:27.672Z,989.94
2023-03-31T01:05:27.649Z,989.89
2023-03-31T01:06:27.625Z,989.90
2023-03-31T01:07:27.654Z,989.91
2023-03-31T01:08:27.684Z,989.90
2023-03-31T01:09:27.609Z,989.91
2023-03-31T01:10:27.602Z,989.92
2023-03-31T01:11:27.573Z,989.87
2023-03-31T01:12:27.565Z,989.92
2023-03-31T01:13:27.593Z,989.91
2023-03-31T01:14:27.612Z,989.86
2023-03-31T01:15:27.540Z,989.88
2023-03-31T01:16:27.538Z,989.88
2023-03-31T01:17:27.652Z,989.89
2023-03-31T01:18:27.539Z,989.85
2023-03-31T01:19:27.517Z,989.82
2023-03-31T01:20:27.514Z,989.84
2023-03-31T01:21:27.466Z,989.77
2023-03-31T01:22:27.445Z,989.82
2023-03-31T01:23:27.435Z,989.79
2023-03-31T01:24:27.449Z,989.74
2023-03-31T01:25:27.477Z,989.79
2023-03-31T01:26:27.411Z,989.75
2023-03-31T01:27:27.415Z,989.76
2023-03-31T01:28:27.418Z,989.72
2023-03-31T01:29:27.375Z,989.72
2023-03-31T01:30:27.381Z,989.70
2023-03-31T01:31:27.481Z,989.73
2023-03-31T01:32:27.369Z,989.70
2023-03-31T01:33:27.317Z,989.65
2023-03-31T01:34:27.317Z,989.58
2023-03-31T01:35:27.354Z,989.57
2023-03-31T01:36:27.302Z,989.55
2023-03-31T01:37:27.299Z,989.55
2023-03-31T01:38:27.258Z,989.48
2023-03-31T01:39:27.242Z,989.48
2023-03-31T01:40:27.240Z,989.51
2023-03-31T01:41:27.280Z,989.48
2023-03-31T01:42:27.284Z,989.50
2023-03-31T01:43:27.194Z,989.50
2023-03-31T01:44:27.201Z,989.49
2023-03-31T01:45:27.179Z,989.48
2023-03-31T01:46:27.221Z,989.44
2023-03-31T01:47:27.187Z,989.44
2023-03-31T01:48:27.208Z,989.38
2023-03-31T01:49:27.128Z,989.46
2023-03-31T01:50:27.121Z,989.42
2023-03-31T01:51:27.167Z,989.41
2023-03-31T01:52:27.252Z,989.40
2023-03-31T01:53:27.124Z,989.36
2023-03-31T01:54:27.095Z,989.37
2023-03-31T01:55:27.066Z,989.40
2023-03-31T01:56:27.110Z,989.39
2023-03-31T01:57:27.282Z,989.40
2023-03-31T01:58:27.065Z,989.37
2023-03-31T01:59:27.034Z,989.36
2023-03-31T02:00:27.031Z,989.37
2023-03-31T02:01:27.021Z,989.33
2023-03-31T02:02:27.090Z,989.32
2023-03-31T02:03:27.077Z,989.32
2023-03-31T02:04:26.972Z,989.30
2023-03-31T02:05:26.965Z,989.26
2023-03-31T02:06:26.929Z,989.29
2023-03-31T02:07:26.958Z,989.27
2023-03-31T02:08:26.945Z,989.24
2023-03-31T02:09:26.964Z,989.21
2023-03-31T02:10:26.908Z,989.24
2023-03-31T02:11:26.913Z,989.21
2023-03-31T02:12:26.884Z,989.20
2023-03-31T02:13:26.885Z,989.20
2023-03-31T02:14:26.867Z,989.22
2023-03-31T02:15:26.855Z,989.18
2023-03-31T02:16:26.891Z,989.18
2023-03-31T02:17:26.894Z,989.13
2023-03-31T02:18:26.837Z,989.15
2023-03-31T02:19:26.792Z,989.08
2023-03-31T02:20:26.832Z,989.07
2023-03-31T02:21:26.772Z,989.11
2023-03-31T02:22:26.768Z,989.08
2023-03-31T02:23:26.764Z,989.10
2023-03-31T02:24:26.730Z,989.10
2023-03-31T02:25:26.738Z,988.98
2023-03-31T02:26:26.762Z,988.98
2023-03-31T02:27:26.743Z,988.93
2023-03-31T02:28:26.710Z,988.88
2023-03-31T02:29:26.712Z,988.97
2023-03-31T02:30:26.667Z,988.93
2023-03-31T02:31:26.687Z,988.88
2023-03-31T02:32:26.679Z,988.92
2023-03-31T02:33:26.681Z,988.85
2023-03-31T02:34:26.611Z,988.82
2023-03-31T02:35:26.655Z,988.79
2023-03-31T02:36:26.690Z,988.85
2023-03-31T02:37:26.600Z,988.82
2023-03-31T02:38:26.565Z,988.82
2023-03-31T02:39:26.566Z,988.84
2023-03-31T02:40:26.554Z,988.82
2023-03-31T02:41:26.564Z,988.85
2023-03-31T02:42:26.583Z,988.77
2023-03-31T02:43:26.564Z,988.77
2023-03-31T02:44:26.522Z,988.79
2023-03-31T02:45:26.576Z,988.76
2023-03-31T02:46:26.535Z,988.75
2023-03-31T02:47:30.023Z,988.71
2023-03-31T02:48:26.532Z,988.75
2023-03-31T02:49:26.483Z,988.67
2023-03-31T02:50:26.441Z,988.69
2023-03-31T02:51:26.453Z,988.66
2023-03-31T02:52:26.417Z,988.57
2023-03-31T02:53:26.462Z,988.58
2023-03-31T02:54:26.413Z,988.59
2023-03-31T02:55:26.400Z,988.52
2023-03-31T02:56:26.370Z,988.52
2023-03-31T02:57:26.529Z,988.51
2023-03-31T02:58:26.385Z,988.44
2023-03-31T02:59:26.380Z,988.46
2023-03-31T03:00:26.346Z,988.43
2023-03-31T03:01:26.390Z,988.46
2023-03-31T03:02:26.349Z,988.48
2023-03-31T03:03:26.314Z,988.46
2023-03-31T03:04:26.363Z,988.42
2023-03-31T03:05:26.275Z,988.35
2023-03-31T03:06:26.254Z,988.33
2023-03-31T03:07:26.258Z,988.27
2023-03-31T03:08:26.259Z,988.30
2023-03-31T03:09:26.239Z,988.30
2023-03-31T03:10:26.259Z,988.22
2023-03-31T03:11:26.217Z,988.23
2023-03-31T03:12:26.225Z,988.18
2023-03-31T03:13:26.224Z,988.13
2023-03-31T03:14:26.164Z,988.15
2023-03-31T03:15:26.140Z,988.16
2023-03-31T03:16:26.257Z,988.13
2023-03-31T03:17:26.259Z,988.13
2023-03-31T03:18:26.139Z,988.10
2023-03-31T03:19:26.107Z,988.17
2023-03-31T03:20:26.100Z,988.12
2023-03-31T03:21:26.137Z,988.10
2023-03-31T03:22:26.062Z,988.13
2023-03-31T03:23:26.060Z,988.09
2023-03-31T03:24:26.072Z,988.10
2023-03-31T03:25:26.049Z,988.13
2023-03-31T03:26:26.026Z,988.09
2023-03-31T03:27:26.058Z,988.11
2023-03-31T03:28:26.023Z,988.15
2023-03-31T03:29:26.038Z,988.12
2023-03-31T03:30:25.982Z,988.13
2023-03-31T03:31:26.567Z,988.10
2023-03-31T03:32:25.975Z,988.12
2023-03-31T03:33:25.973Z,988.06
2023-03-31T03:34:25.924Z,988.09
2023-03-31T03:35:25.980Z,988.07
2023-03-31T03:36:25.951Z,988.05
2023-03-31T03:37:25.912Z,988.04
2023-03-31T03:38:25.892Z,988.00
2023-03-31T03:39:25.901Z,988.03
2023-03-31T03:40:25.912Z,988.04
2023-03-31T03:41:25.870Z,988.03
2023-03-31T03:42:25.863Z,988.00
2023-03-31T03:43:25.822Z,988.01
2023-03-31T03:44:25.887Z,988.02
2023-03-31T03:45:25.815Z,987.96
2023-03-31T03:46:25.870Z,987.95
2023-03-31T03:47:25.795Z,987.95
2023-03-31T03:48:25.811Z,987.96
2023-03-31T03:49:25.774Z,987.99
2023-03-31T03:50:25.840Z,987.94
2023-03-31T03:51:25.746Z,987.90
2023-03-31T03:52:25.751Z,987.87
2023-03-31T03:53:25.710Z,987.83
2023-03-31T03:54:25.722Z,987.88
2023-03-31T03:55:25.703Z,987.86
2023-03-31T03:56:25.733Z,987.81
2023-03-31T03:57:25.737Z,987.79
2023-03-31T03:58:25.688Z,987.81
2023-03-31T03:59:25.642Z,987.78
2023-03-31T04:00:25.640Z,987.75
2023-03-31T04:01:25.609Z,987.72
2023-03-31T04:02:28.033Z,987.75
2023-03-31T04:03:25.653Z,987.73
2023-03-31T04:04:25.585Z,987.70
2023-03-31T04:05:25.664Z,987.73
2023-03-31T04:06:25.560Z,987.71
2023-03-31T04:07:25.528Z,987.68
2023-03-31T04:08:25.597Z,987.67
2023-03-31T04:09:25.548Z,987.60
2023-03-31T04:10:25.530Z,987.60
2023-03-31T04:13:43.453Z,987.54
2023-03-31T04:14:40.924Z,987.49
2023-03-31T04:15:43.439Z,987.47
2023-03-31T04:16:41.534Z,987.44
2023-03-31T04:17:40.903Z,987.44
2023-03-31T04:18:40.839Z,987.42
2023-03-31T04:19:40.857Z,987.42
2023-03-31T04:20:40.855Z,987.42
2023-03-31T04:21:40.851Z,987.41
2023-03-31T04:22:41.270Z,987.40
2023-03-31T04:23:40.786Z,987.35
2023-03-31T04:24:40.813Z,987.32
2023-03-31T04:25:40.787Z,987.30
2023-03-31T04:26:40.755Z,987.28
2023-03-31T04:27:40.787Z,987.30
2023-03-31T04:28:40.738Z,987.22
2023-03-31T04:29:40.764Z,987.23
2023-03-31T04:30:40.737Z,987.17
2023-03-31T04:31:40.768Z,987.17
2023-03-31T04:32:40.732Z,987.13
2023-03-31T04:33:40.700Z,987.12
2023-03-31T04:34:40.711Z,987.08
2023-03-31T04:35:40.717Z,987.02
2023-03-31T04:36:40.683Z,987.06
2023-03-31T04:37:40.664Z,987.06
2023-03-31T04:38:40.625Z,987.05
2023-03-31T04:39:40.662Z,987.02
2023-03-31T04:40:40.598Z,987.03
2023-03-31T04:41:40.623Z,986.95
2023-03-31T04:42:40.578Z,986.92
2023-03-31T04:43:40.618Z,986.90
2023-03-31T04:44:40.598Z,986.88
2023-03-31T04:45:40.596Z,986.88
2023-03-31T04:46:40.570Z,986.81
2023-03-31T04:47:40.572Z,986.80
2023-03-31T04:48:40.519Z,986.80
2023-03-31T04:49:40.505Z,986.76
2023-03-31T04:50:40.565Z,986.76
2023-03-31T04:51:40.490Z,986.74
2023-03-31T04:52:40.456Z,986.71
2023-03-31T04:53:40.450Z,986.65
2023-03-31T04:54:41.487Z,986.65
2023-03-31T04:55:40.431Z,986.62
2023-03-31T04:56:40.461Z,986.57
2023-03-31T04:57:40.439Z,986.54
2023-03-31T04:58:40.403Z,986.58
2023-03-31T04:59:40.417Z,986.49
2023-03-31T05:00:40.393Z,986.35
2023-03-31T05:01:40.459Z,986.30
2023-03-31T05:02:40.551Z,986.23
2023-03-31T05:03:40.371Z,986.20
2023-03-31T05:04:40.335Z,986.20
2023-03-31T05:05:40.329Z,986.13
2023-03-31T05:06:40.401Z,986.10
2023-03-31T05:07:40.308Z,986.14
2023-03-31T05:08:40.360Z,986.15
2023-03-31T05:09:40.267Z,986.14
2023-03-31T05:10:40.276Z,986.12
2023-03-31T05:11:40.268Z,986.13
2023-03-31T05:12:40.257Z,986.06
2023-03-31T05:13:40.303Z,986.02
2023-03-31T05:14:40.256Z,986.06
2023-03-31T05:15:40.259Z,986.05
2023-03-31T05:16:40.244Z,986.06
2023-03-31T05:17:40.262Z,986.00
2023-03-31T05:18:40.226Z,986.00
2023-03-31T05:19:40.173Z,986.00
2023-03-31T05:20:40.152Z,986.02
2023-03-31T05:21:40.194Z,986.00
2023-03-31T05:22:42.513Z,986.03
2023-03-31T05:23:40.198Z,985.97
2023-03-31T05:24:40.142Z,985.93
2023-03-31T05:25:40.112Z,985.93
2023-03-31T05:26:40.106Z,985.90
2023-03-31T05:27:40.081Z,985.87
2023-03-31T05:28:40.105Z,985.89
2023-03-31T05:29:40.107Z,985.90
2023-03-31T05:30:40.109Z,985.86
2023-03-31T05:31:40.039Z,985.87
2023-03-31T05:32:40.087Z,985.81
2023-03-31T05:33:40.035Z,985.80
2023-03-31T05:34:40.038Z,985.79
2023-03-31T05:35:40.094Z,985.82
2023-03-31T05:36:39.982Z,985.81
2023-03-31T05:37:39.995Z,985.82
2023-03-31T05:38:40.029Z,985.80
2023-03-31T05:39:39.988Z,985.80
2023-03-31T05:40:40.037Z,985.81
2023-03-31T05:41:39.960Z,985.79
2023-03-31T05:42:39.939Z,985.79
2023-03-31T05:43:40.147Z,985.85
2023-03-31T05:44:39.909Z,985.83
2023-03-31T05:45:39.903Z,985.89
2023-03-31T05:46:39.930Z,985.92
2023-03-31T05:47:39.905Z,985.97
2023-03-31T05:48:39.867Z,985.90
2023-03-31T05:49:39.862Z,985.93
2023-03-31T05:50:39.864Z,985.91
2023-03-31T05:51:39.872Z,985.87
2023-03-31T05:52:39.806Z,985.88
2023-03-31T05:53:39.802Z,985.82
2023-03-31T05:54:39.768Z,985.86
2023-03-31T05:55:39.760Z,985.83
2023-03-31T05:56:39.820Z,985.82
2023-03-31T05:57:39.766Z,985.75
2023-03-31T05:58:40.000Z,985.82
2023-03-31T05:59:39.781Z,985.83
2023-03-31T06:00:39.780Z,985.81
2023-03-31T06:01:39.776Z,985.76
2023-03-31T06:02:39.744Z,985.80
2023-03-31T06:03:39.797Z,985.75
2023-03-31T06:04:39.742Z,985.72
2023-03-31T06:05:39.686Z,985.76
2023-03-31T06:06:39.676Z,985.66
2023-03-31T06:07:39.700Z,985.66
2023-03-31T06:08:39.735Z,985.68
2023-03-31T06:09:39.594Z,985.73
2023-03-31T06:10:39.626Z,985.62
2023-03-31T06:11:39.590Z,985.58
2023-03-31T06:12:39.616Z,985.59
2023-03-31T06:13:39.596Z,985.54
2023-03-31T06:14:39.547Z,985.51
2023-03-31T06:15:39.615Z,985.51
2023-03-31T06:16:42.600Z,985.42
2023-03-31T06:17:39.594Z,985.40
2023-03-31T06:18:39.506Z,985.40
2023-03-31T06:19:39.567Z,985.32
2023-03-31T06:20:39.489Z,985.33
2023-03-31T06:21:39.473Z,985.29
2023-03-31T06:22:39.502Z,985.34
2023-03-31T06:23:39.481Z,985.32
2023-03-31T06:24:39.459Z,985.22
2023-03-31T06:25:50.484Z,985.19
2023-03-31T06:26:40.416Z,985.17
2023-03-31T06:27:39.420Z,985.14
2023-03-31T06:28:39.406Z,985.03
2023-03-31T06:29:39.388Z,985.03
2023-03-31T06:30:39.396Z,985.08
2023-03-31T06:31:39.459Z,984.95
2023-03-31T06:32:39.408Z,984.83
2023-03-31T06:33:39.391Z,984.91
2023-03-31T06:34:39.349Z,984.95
2023-03-31T06:35:39.371Z,984.84
2023-03-31T06:36:39.339Z,984.79
2023-03-31T06:37:39.292Z,984.86
2023-03-31T06:38:39.285Z,984.77
2023-03-31T06:39:39.308Z,984.70
2023-03-31T06:40:39.273Z,984.65
2023-03-31T06:41:39.266Z,984.63
2023-03-31T06:42:39.256Z,984.71
2023-03-31T06:43:39.263Z,984.56
2023-03-31T06:44:39.207Z,984.64
2023-03-31T06:45:39.305Z,984.63
2023-03-31T06:46:39.252Z,984.69
2023-03-31T06:47:39.239Z,984.75
2023-03-31T06:48:39.168Z,984.80
2023-03-31T06:49:39.322Z,984.83
2023-03-31T06:50:39.241Z,984.82
2023-03-31T06:51:39.152Z,984.81
2023-03-31T06:52:39.117Z,984.85
2023-03-31T06:53:39.133Z,984.90
2023-03-31T06:54:39.142Z,984.87
2023-03-31T06:55:39.134Z,984.90
2023-03-31T06:56:39.164Z,984.95
2023-03-31T06:57:39.168Z,984.90
2023-03-31T06:58:39.064Z,984.91
2023-03-31T06:59:39.110Z,984.89
2023-03-31T07:00:39.047Z,984.99
2023-03-31T07:01:39.153Z,984.99
2023-03-31T07:02:39.178Z,984.99
2023-03-31T07:03:39.092Z,984.93
2023-03-31T07:04:38.994Z,984.98
2023-03-31T07:05:39.017Z,984.90
2023-03-31T07:06:38.986Z,984.90
2023-03-31T07:07:39.073Z,984.87
2023-03-31T07:08:39.150Z,984.99
2023-03-31T07:09:38.932Z,984.96
2023-03-31T07:10:38.917Z,984.92
2023-03-31T07:11:38.947Z,984.95
2023-03-31T07:12:38.914Z,985.01
2023-03-31T07:13:39.245Z,984.99
2023-03-31T07:14:38.901Z,984.93
2023-03-31T07:15:38.913Z,984.97
2023-03-31T07:16:38.985Z,984.97
2023-03-31T07:17:38.874Z,984.95
2023-03-31T07:18:41.359Z,984.93
2023-03-31T07:19:39.896Z,984.94
2023-03-31T07:20:38.824Z,984.94
2023-03-31T07:21:38.842Z,984.92
2023-03-31T07:22:38.816Z,984.95
2023-03-31T07:23:39.057Z,984.95
2023-03-31T07:24:38.773Z,984.92
2023-03-31T07:25:38.847Z,984.97
2023-03-31T07:26:38.756Z,984.91
2023-03-31T07:27:38.863Z,984.84
2023-03-31T07:28:38.745Z,984.76
2023-03-31T07:29:38.713Z,984.74
2023-03-31T07:30:38.727Z,984.73
2023-03-31T07:31:38.721Z,984.74
2023-03-31T07:32:38.704Z,984.72
2023-03-31T07:33:38.701Z,984.72
2023-03-31T07:34:38.744Z,984.70
2023-03-31T07:35:38.720Z,984.62
2023-03-31T07:36:38.686Z,984.57
2023-03-31T07:37:38.655Z,984.52
2023-03-31T07:38:38.864Z,984.56
2023-03-31T07:39:38.597Z,984.50
2023-03-31T07:40:39.705Z,984.51
2023-03-31T07:41:38.578Z,984.47
2023-03-31T07:42:38.587Z,984.53
2023-03-31T07:43:38.587Z,984.59
2023-03-31T07:44:38.586Z,984.55
2023-03-31T07:45:38.541Z,984.56
2023-03-31T07:46:39.800Z,984.53
2023-03-31T07:47:38.545Z,984.48
2023-03-31T07:48:38.494Z,984.50
2023-03-31T07:49:38.494Z,984.49
2023-03-31T07:50:38.498Z,984.50
2023-03-31T07:51:38.469Z,984.54
2023-03-31T07:52:38.549Z,984.57
2023-03-31T07:53:38.442Z,984.56
2023-03-31T07:54:38.441Z,984.55
2023-03-31T07:55:38.439Z,984.53
2023-03-31T07:56:38.442Z,984.49
2023-03-31T07:57:38.451Z,984.51
2023-03-31T07:58:38.433Z,984.49
2023-03-31T07:59:38.422Z,984.50
2023-03-31T08:00:38.381Z,984.50
2023-03-31T08:01:38.391Z,984.51
2023-03-31T08:02:38.417Z,984.45
2023-03-31T08:03:38.343Z,984.50
2023-03-31T08:04:38.383Z,984.45
2023-03-31T08:05:38.355Z,984.47
2023-03-31T08:06:38.333Z,984.45
2023-03-31T08:07:38.328Z,984.41
2023-03-31T08:08:38.285Z,984.47
2023-03-31T08:09:38.260Z,984.35
2023-03-31T08:10:38.270Z,984.30
2023-03-31T08:11:38.251Z,984.32
2023-03-31T08:12:38.273Z,984.33
2023-03-31T08:13:39.198Z,984.23
2023-03-31T08:14:41.610Z,984.19
2023-03-31T08:15:38.240Z,984.18
2023-03-31T08:16:38.298Z,984.15
2023-03-31T08:17:38.291Z,984.17
2023-03-31T08:18:38.139Z,984.11
2023-03-31T08:19:38.154Z,984.07
2023-03-31T08:20:38.135Z,984.06
2023-03-31T08:21:38.142Z,983.98
2023-03-31T08:22:38.144Z,984.00
2023-03-31T08:23:38.102Z,984.00
2023-03-31T08:24:38.088Z,984.02
2023-03-31T08:25:38.066Z,983.98
2023-03-31T08:26:38.072Z,983.93
2023-03-31T08:27:38.101Z,983.92
2023-03-31T08:30:58.342Z,983.93
2023-03-31T08:31:58.359Z,983.94
2023-03-31T08:32:58.980Z,983.85
2023-03-31T08:33:58.269Z,983.90
2023-03-31T08:34:58.267Z,983.88
2023-03-31T08:35:58.289Z,983.87
2023-03-31T08:36:58.289Z,983.80
2023-03-31T08:37:58.231Z,983.82
2023-03-31T08:38:58.222Z,983.87
2023-03-31T08:39:58.230Z,983.86
2023-03-31T08:40:58.216Z,983.86
2023-03-31T08:41:58.322Z,983.87
2023-03-31T08:42:58.230Z,983.84
2023-03-31T08:43:58.277Z,983.88
2023-03-31T08:44:58.169Z,983.89
2023-03-31T08:45:58.204Z,983.76
2023-03-31T08:46:58.169Z,983.77
2023-03-31T08:47:58.164Z,983.74
2023-03-31T08:48:58.161Z,983.77
2023-03-31T08:49:58.120Z,983.61
2023-03-31T08:50:58.132Z,983.60
2023-03-31T08:51:58.099Z,983.56
2023-03-31T08:52:58.104Z,983.60
2023-03-31T08:53:58.052Z,983.60
2023-03-31T08:54:58.249Z,983.55
2023-03-31T08:55:58.064Z,983.53
2023-03-31T08:56:58.094Z,983.46
2023-03-31T08:57:58.018Z,983.54
2023-03-31T08:58:58.086Z,983.46
2023-03-31T08:59:58.021Z,983.48
2023-03-31T09:00:58.024Z,983.49
2023-03-31T09:01:58.021Z,983.46
2023-03-31T09:02:58.135Z,983.50
2023-03-31T09:03:58.041Z,983.45
2023-03-31T09:04:57.955Z,983.43
2023-03-31T09:06:00.679Z,983.36
2023-03-31T09:06:57.933Z,983.40
2023-03-31T09:07:57.940Z,983.33
2023-03-31T09:08:57.937Z,983.21
2023-03-31T09:09:57.916Z,983.26
2023-03-31T09:10:57.881Z,983.24
2023-03-31T09:11:57.966Z,983.24
2023-03-31T09:12:57.836Z,983.21
2023-03-31T09:13:57.858Z,983.10
2023-03-31T09:14:57.841Z,983.11
2023-03-31T09:15:57.844Z,983.11
2023-03-31T09:16:57.884Z,983.17
2023-03-31T09:17:57.885Z,983.03
2023-03-31T09:18:57.781Z,983.10
2023-03-31T09:19:57.797Z,983.15
2023-03-31T09:20:57.778Z,983.09
2023-03-31T09:21:57.742Z,983.09
2023-03-31T09:22:57.855Z,983.05
2023-03-31T09:23:57.737Z,983.09
2023-03-31T09:24:57.710Z,983.09
2023-03-31T09:25:57.712Z,983.08
2023-03-31T09:26:57.687Z,983.06
2023-03-31T09:27:57.680Z,983.02
2023-03-31T09:28:57.714Z,983.02
2023-03-31T09:29:57.717Z,982.99
2023-03-31T09:30:57.705Z,983.00
2023-03-31T09:31:57.716Z,982.99
2023-03-31T09:32:57.637Z,983.01
2023-03-31T09:33:57.628Z,982.96
2023-03-31T09:34:57.659Z,982.96
2023-03-31T09:35:57.638Z,982.92
2023-03-31T09:36:57.624Z,982.90
2023-03-31T09:37:57.543Z,982.90
2023-03-31T09:38:57.584Z,982.87
2023-03-31T09:39:57.591Z,982.78
2023-03-31T09:40:57.709Z,982.76
2023-03-31T09:41:57.502Z,982.76
2023-03-31T09:42:57.523Z,982.78
2023-03-31T09:43:57.514Z,982.68
2023-03-31T09:44:57.513Z,982.58
2023-03-31T09:46:09.211Z,982.69
2023-03-31T09:46:58.476Z,982.49
2023-03-31T09:47:57.491Z,982.47
2023-03-31T09:48:57.439Z,982.44
2023-03-31T09:49:57.486Z,982.41
2023-03-31T09:50:57.425Z,982.43
2023-03-31T09:51:57.534Z,982.43
2023-03-31T09:52:57.406Z,982.34
2023-03-31T09:53:57.401Z,982.38
2023-03-31T09:54:57.357Z,982.38
2023-03-31T09:55:57.358Z,982.34
2023-03-31T09:56:57.378Z,982.34
2023-03-31T09:57:57.649Z,982.27
2023-03-31T09:58:57.321Z,982.32
2023-03-31T09:59:57.402Z,982.21
2023-03-31T10:00:57.386Z,982.25
2023-03-31T10:01:57.332Z,982.21
2023-03-31T10:02:57.411Z,982.23
2023-03-31T10:03:57.317Z,982.21
2023-03-31T10:04:57.298Z,982.18
2023-03-31T10:05:57.250Z,982.17
2023-03-31T10:06:57.265Z,982.12
2023-03-31T10:07:57.259Z,982.16
2023-03-31T10:08:57.277Z,982.13
2023-03-31T10:09:57.206Z,982.08
2023-03-31T10:10:57.359Z,982.08
2023-03-31T10:11:57.185Z,982.03
2023-03-31T10:12:57.235Z,982.02
2023-03-31T10:13:57.150Z,981.99
2023-03-31T10:14:57.128Z,982.00
2023-03-31T10:15:57.186Z,981.97
2023-03-31T10:16:57.230Z,982.00
2023-03-31T10:17:57.108Z,981.92
2023-03-31T10:18:57.126Z,981.87
2023-03-31T10:19:57.108Z,981.89
2023-03-31T10:20:57.098Z,981.87
2023-03-31T10:21:57.120Z,981.88
2023-03-31T10:22:57.072Z,981.89
2023-03-31T10:23:57.042Z,981.79
2023-03-31T10:24:57.017Z,981.81
2023-03-31T10:25:57.024Z,981.80
2023-03-31T10:26:57.012Z,981.83
2023-03-31T10:27:57.027Z,981.92
2023-03-31T10:28:57.099Z,981.80
2023-03-31T10:29:56.971Z,981.82
2023-03-31T10:30:56.977Z,981.78
2023-03-31T10:31:56.973Z,981.84
2023-03-31T10:32:57.039Z,981.75
2023-03-31T10:33:56.926Z,981.78
2023-03-31T10:34:56.911Z,981.75
2023-03-31T10:35:56.894Z,981.75
2023-03-31T10:36:56.894Z,981.75
2023-03-31T10:37:56.937Z,981.72
2023-03-31T10:38:56.921Z,981.73
2023-03-31T10:39:56.908Z,981.70
2023-03-31T10:40:56.850Z,981.73
2023-03-31T10:41:56.824Z,981.73
2023-03-31T10:42:56.806Z,981.62
2023-03-31T10:43:57.071Z,981.74
2023-03-31T10:44:56.780Z,981.65
2023-03-31T10:45:56.810Z,981.69
2023-03-31T10:46:56.858Z,981.73
2023-03-31T10:47:56.830Z,981.67
2023-03-31T10:48:56.763Z,981.68
2023-03-31T10:49:56.738Z,981.61
2023-03-31T10:50:56.748Z,981.59
2023-03-31T10:51:56.702Z,981.58
2023-03-31T10:52:56.786Z,981.53
2023-03-31T10:53:56.672Z,981.53
2023-03-31T10:54:56.772Z,981.57
2023-03-31T10:55:56.702Z,981.57
2023-03-31T10:56:56.659Z,981.51
2023-03-31T10:57:56.702Z,981.46
2023-03-31T10:59:05.250Z,981.46
2023-03-31T10:59:57.632Z,981.50
2023-03-31T11:00:56.587Z,981.37
2023-03-31T11:01:58.932Z,981.41
2023-03-31T11:02:56.748Z,981.35
2023-03-31T11:03:56.590Z,981.37
2023-03-31T11:04:56.576Z,981.43
2023-03-31T11:05:56.550Z,981.39
2023-03-31T11:06:56.513Z,981.35
2023-03-31T11:07:56.559Z,981.36
2023-03-31T11:08:56.560Z,981.35
2023-03-31T11:09:56.504Z,981.35
2023-03-31T11:10:56.497Z,981.32
2023-03-31T11:11:56.463Z,981.26
2023-03-31T11:12:56.452Z,981.29
2023-03-31T11:13:56.513Z,981.22
2023-03-31T11:14:56.424Z,981.19
2023-03-31T11:15:56.443Z,981.17
2023-03-31T11:16:56.488Z,981.21
2023-03-31T11:17:56.434Z,981.20
2023-03-31T11:18:56.443Z,981.18
2023-03-31T11:19:56.382Z,981.01
2023-03-31T11:20:56.382Z,981.07
2023-03-31T11:21:56.377Z,981.33
2023-03-31T11:22:56.359Z,981.61
2023-03-31T11:23:56.355Z,981.75
2023-03-31T11:24:59.395Z,981.74
2023-03-31T11:25:56.308Z,981.64
2023-03-31T11:26:56.322Z,981.61
2023-03-31T11:27:56.275Z,981.58
2023-03-31T11:28:56.320Z,981.60
2023-03-31T11:29:56.272Z,981.58
2023-03-31T11:30:56.287Z,981.59
2023-03-31T11:31:56.294Z,981.57
2023-03-31T11:32:56.276Z,981.51
2023-03-31T11:33:56.207Z,981.50
2023-03-31T11:34:56.243Z,981.49
2023-03-31T11:35:56.210Z,981.53
2023-03-31T11:36:56.200Z,981.58
2023-03-31T11:37:56.200Z,981.58
2023-03-31T11:38:56.179Z,981.55
2023-03-31T11:39:56.153Z,981.53
2023-03-31T11:40:56.165Z,981.50
2023-03-31T11:41:56.134Z,981.51
2023-03-31T11:42:56.134Z,981.51
2023-03-31T11:43:56.114Z,981.42
2023-03-31T11:44:56.090Z,981.38
2023-03-31T11:45:56.111Z,981.28
2023-03-31T11:46:56.085Z,981.25
2023-03-31T11:47:56.128Z,981.22
2023-03-31T11:48:56.066Z,981.16
2023-03-31T11:49:56.067Z,981.18
2023-03-31T11:50:56.014Z,981.20
2023-03-31T11:51:56.012Z,981.21
2023-03-31T11:52:56.333Z,981.24
2023-03-31T11:53:55.989Z,981.26
2023-03-31T11:54:55.984Z,981.26
2023-03-31T11:55:56.014Z,981.18
2023-03-31T11:56:55.993Z,981.19
2023-03-31T11:57:55.944Z,981.18
2023-03-31T11:58:55.938Z,981.19
2023-03-31T11:59:55.921Z,981.20
2023-03-31T12:00:55.896Z,981.18
2023-03-31T12:01:55.952Z,981.16
2023-03-31T12:02:55.863Z,981.17
2023-03-31T12:03:56.007Z,981.16
2023-03-31T12:04:55.853Z,981.15
2023-03-31T12:05:55.914Z,981.11
2023-03-31T12:06:55.888Z,981.11
2023-03-31T12:07:55.837Z,981.10
2023-03-31T12:08:55.851Z,981.08
2023-03-31T12:09:56.823Z,981.03
2023-03-31T12:10:55.817Z,980.99
2023-03-31T12:11:55.792Z,980.99
2023-03-31T12:12:55.827Z,980.99
2023-03-31T12:13:55.768Z,981.01
2023-03-31T12:14:55.730Z,981.02
2023-03-31T12:15:56.115Z,980.96
2023-03-31T12:16:55.770Z,980.95
2023-03-31T12:17:55.790Z,981.04
2023-03-31T12:18:55.683Z,980.99
2023-03-31T12:19:55.676Z,980.87
2023-03-31T12:20:55.668Z,980.79
2023-03-31T12:21:55.699Z,980.73
2023-03-31T12:22:55.691Z,980.72
2023-03-31T12:23:55.614Z,980.67
2023-03-31T12:24:55.625Z,980.66
2023-03-31T12:25:55.615Z,980.63
2023-03-31T12:26:55.604Z,980.58
2023-03-31T12:27:55.623Z,980.51
2023-03-31T12:28:55.595Z,980.48
2023-03-31T12:29:55.615Z,980.49
2023-03-31T12:30:55.560Z,980.45
2023-03-31T12:31:55.565Z,980.47
2023-03-31T12:32:55.680Z,980.40